sensor_id;sensor_type;location;lat;lon;timestamp;P1;durP1;ratioP1;P2;durP2;ratioP2
3643;SDS011;1838;50.742;7.158;2023-08-17T00:00:04;19.10;;;14.07;;
3643;SDS011;1838;50.742;7.158;2023-08-17T00:02:33;22.10;;;12.60;;
3643;SDS011;1838;50.742;7.158;2023-08-17T00:04:59;19.17;;;14.53;;
3643;SDS011;1838;50.742;7.158;2023-08-17T00:07:24;26.20;;;14.80;;
3643;SDS011;1838;50.742;7.158;2023-08-17T00:09:50;20.47;;;15.23;;
3643;SDS011;1838;50.742;7.158;2023-08-17T00:12:15;19.40;;;14.20;;
3643;SDS011;1838;50.742;7.158;2023-08-17T00:14:41;20.53;;;15.70;;
3643;SDS011;1838;50.742;7.158;2023-08-17T00:17:06;19.17;;;16.00;;
3643;SDS011;1838;50.742;7.158;2023-08-17T00:19:32;27.63;;;16.33;;
3643;SDS011;1838;50.742;7.158;2023-08-17T00:21:57;21.07;;;14.73;;
3643;SDS011;1838;50.742;7.158;2023-08-17T00:24:23;21.27;;;17.13;;
3643;SDS011;1838;50.742;7.158;2023-08-17T00:26:49;24.40;;;16.70;;
3643;SDS011;1838;50.742;7.158;2023-08-17T00:29:14;18.13;;;15.67;;
3643;SDS011;1838;50.742;7.158;2023-08-17T00:31:40;29.67;;;19.20;;
3643;SDS011;1838;50.742;7.158;2023-08-17T00:34:06;28.20;;;20.33;;
3643;SDS011;1838;50.742;7.158;2023-08-17T00:36:31;25.43;;;18.20;;
3643;SDS011;1838;50.742;7.158;2023-08-17T00:38:57;20.80;;;16.13;;
3643;SDS011;1838;50.742;7.158;2023-08-17T00:41:23;21.43;;;18.00;;
3643;SDS011;1838;50.742;7.158;2023-08-17T00:43:48;21.97;;;16.80;;
3643;SDS011;1838;50.742;7.158;2023-08-17T00:46:14;22.90;;;16.00;;
3643;SDS011;1838;50.742;7.158;2023-08-17T00:48:40;20.13;;;16.20;;
3643;SDS011;1838;50.742;7.158;2023-08-17T00:51:06;24.23;;;16.87;;
3643;SDS011;1838;50.742;7.158;2023-08-17T00:53:32;24.30;;;14.97;;
3643;SDS011;1838;50.742;7.158;2023-08-17T00:55:58;15.93;;;13.73;;
3643;SDS011;1838;50.742;7.158;2023-08-17T00:58:25;18.27;;;15.10;;
3643;SDS011;1838;50.742;7.158;2023-08-17T01:00:52;20.30;;;14.60;;
3643;SDS011;1838;50.742;7.158;2023-08-17T01:03:17;16.67;;;14.10;;
3643;SDS011;1838;50.742;7.158;2023-08-17T01:05:45;19.30;;;15.60;;
3643;SDS011;1838;50.742;7.158;2023-08-17T01:08:11;17.87;;;13.77;;
3643;SDS011;1838;50.742;7.158;2023-08-17T01:10:59;18.50;;;13.37;;
3643;SDS011;1838;50.742;7.158;2023-08-17T01:14:19;23.60;;;14.80;;
3643;SDS011;1838;50.742;7.158;2023-08-17T01:16:31;23.53;;;14.63;;
3643;SDS011;1838;50.742;7.158;2023-08-17T01:19:01;18.80;;;14.97;;
3643;SDS011;1838;50.742;7.158;2023-08-17T01:21:41;21.43;;;14.77;;
3643;SDS011;1838;50.742;7.158;2023-08-17T01:24:09;26.57;;;17.00;;
3643;SDS011;1838;50.742;7.158;2023-08-17T01:26:36;19.90;;;15.83;;
3643;SDS011;1838;50.742;7.158;2023-08-17T01:29:02;19.37;;;15.57;;
3643;SDS011;1838;50.742;7.158;2023-08-17T01:31:28;21.93;;;16.10;;
3643;SDS011;1838;50.742;7.158;2023-08-17T01:34:03;18.93;;;14.00;;
3643;SDS011;1838;50.742;7.158;2023-08-17T01:36:33;23.70;;;17.33;;
3643;SDS011;1838;50.742;7.158;2023-08-17T01:39:02;22.23;;;15.23;;
3643;SDS011;1838;50.742;7.158;2023-08-17T01:41:29;25.37;;;14.87;;
3643;SDS011;1838;50.742;7.158;2023-08-17T01:43:56;21.20;;;15.70;;
3643;SDS011;1838;50.742;7.158;2023-08-17T01:46:27;21.17;;;15.67;;
3643;SDS011;1838;50.742;7.158;2023-08-17T01:48:55;22.17;;;16.90;;
3643;SDS011;1838;50.742;7.158;2023-08-17T01:51:21;21.83;;;14.73;;
3643;SDS011;1838;50.742;7.158;2023-08-17T01:53:46;18.40;;;15.83;;
3643;SDS011;1838;50.742;7.158;2023-08-17T01:56:12;19.17;;;15.63;;
3643;SDS011;1838;50.742;7.158;2023-08-17T01:58:38;17.83;;;14.13;;
3643;SDS011;1838;50.742;7.158;2023-08-17T02:01:03;18.53;;;14.87;;
3643;SDS011;1838;50.742;7.158;2023-08-17T02:03:29;24.13;;;16.53;;
3643;SDS011;1838;50.742;7.158;2023-08-17T02:05:58;20.87;;;16.00;;
3643;SDS011;1838;50.742;7.158;2023-08-17T02:08:24;18.97;;;15.43;;
3643;SDS011;1838;50.742;7.158;2023-08-17T02:10:50;21.07;;;15.80;;
3643;SDS011;1838;50.742;7.158;2023-08-17T02:13:16;16.90;;;14.47;;
3643;SDS011;1838;50.742;7.158;2023-08-17T02:15:43;22.93;;;16.80;;
3643;SDS011;1838;50.742;7.158;2023-08-17T02:18:09;19.87;;;15.73;;
3643;SDS011;1838;50.742;7.158;2023-08-17T02:20:35;37.57;;;16.53;;
3643;SDS011;1838;50.742;7.158;2023-08-17T02:23:01;21.60;;;16.47;;
3643;SDS011;1838;50.742;7.158;2023-08-17T02:25:26;20.53;;;16.00;;
3643;SDS011;1838;50.742;7.158;2023-08-17T02:27:58;26.63;;;15.60;;
3643;SDS011;1838;50.742;7.158;2023-08-17T02:30:25;20.47;;;15.40;;
3643;SDS011;1838;50.742;7.158;2023-08-17T02:32:50;23.60;;;16.80;;
3643;SDS011;1838;50.742;7.158;2023-08-17T02:35:16;26.30;;;17.47;;
3643;SDS011;1838;50.742;7.158;2023-08-17T02:37:41;26.70;;;15.43;;
3643;SDS011;1838;50.742;7.158;2023-08-17T02:40:07;19.67;;;15.97;;
3643;SDS011;1838;50.742;7.158;2023-08-17T02:42:32;21.70;;;15.30;;
3643;SDS011;1838;50.742;7.158;2023-08-17T02:44:58;20.97;;;16.87;;
3643;SDS011;1838;50.742;7.158;2023-08-17T02:47:23;22.20;;;16.13;;
3643;SDS011;1838;50.742;7.158;2023-08-17T02:49:49;19.20;;;16.57;;
3643;SDS011;1838;50.742;7.158;2023-08-17T02:52:14;23.43;;;15.20;;
3643;SDS011;1838;50.742;7.158;2023-08-17T02:54:40;21.40;;;15.00;;
3643;SDS011;1838;50.742;7.158;2023-08-17T02:57:05;22.10;;;16.50;;
3643;SDS011;1838;50.742;7.158;2023-08-17T02:59:31;24.40;;;16.40;;
3643;SDS011;1838;50.742;7.158;2023-08-17T03:01:56;27.73;;;16.43;;
3643;SDS011;1838;50.742;7.158;2023-08-17T03:04:22;19.10;;;15.37;;
3643;SDS011;1838;50.742;7.158;2023-08-17T03:06:48;23.33;;;18.27;;
3643;SDS011;1838;50.742;7.158;2023-08-17T03:09:13;26.83;;;16.80;;
3643;SDS011;1838;50.742;7.158;2023-08-17T03:11:39;35.30;;;18.67;;
3643;SDS011;1838;50.742;7.158;2023-08-17T03:14:04;21.23;;;15.90;;
3643;SDS011;1838;50.742;7.158;2023-08-17T03:16:30;22.90;;;15.37;;
3643;SDS011;1838;50.742;7.158;2023-08-17T03:18:55;33.23;;;18.23;;
3643;SDS011;1838;50.742;7.158;2023-08-17T03:21:21;23.60;;;16.17;;
3643;SDS011;1838;50.742;7.158;2023-08-17T03:23:47;26.07;;;16.80;;
3643;SDS011;1838;50.742;7.158;2023-08-17T03:26:13;26.90;;;16.10;;
3643;SDS011;1838;50.742;7.158;2023-08-17T03:28:39;29.13;;;17.10;;
3643;SDS011;1838;50.742;7.158;2023-08-17T03:31:06;29.10;;;16.80;;
3643;SDS011;1838;50.742;7.158;2023-08-17T03:33:33;30.13;;;17.53;;
3643;SDS011;1838;50.742;7.158;2023-08-17T03:35:59;27.80;;;17.07;;
3643;SDS011;1838;50.742;7.158;2023-08-17T03:38:25;27.00;;;17.73;;
3643;SDS011;1838;50.742;7.158;2023-08-17T03:40:50;25.30;;;17.93;;
3643;SDS011;1838;50.742;7.158;2023-08-17T03:43:16;31.00;;;20.27;;
3643;SDS011;1838;50.742;7.158;2023-08-17T03:45:42;25.97;;;18.13;;
3643;SDS011;1838;50.742;7.158;2023-08-17T03:48:07;40.67;;;19.57;;
3643;SDS011;1838;50.742;7.158;2023-08-17T03:50:33;30.37;;;17.93;;
3643;SDS011;1838;50.742;7.158;2023-08-17T03:52:59;33.37;;;17.57;;
3643;SDS011;1838;50.742;7.158;2023-08-17T03:55:24;37.47;;;18.67;;
3643;SDS011;1838;50.742;7.158;2023-08-17T03:57:50;37.03;;;19.77;;
3643;SDS011;1838;50.742;7.158;2023-08-17T04:00:15;36.50;;;17.67;;
3643;SDS011;1838;50.742;7.158;2023-08-17T04:02:41;36.87;;;20.87;;
3643;SDS011;1838;50.742;7.158;2023-08-17T04:05:06;36.60;;;20.10;;
3643;SDS011;1838;50.742;7.158;2023-08-17T04:07:32;39.87;;;22.27;;
3643;SDS011;1838;50.742;7.158;2023-08-17T04:09:58;31.27;;;18.53;;
3643;SDS011;1838;50.742;7.158;2023-08-17T04:12:23;43.40;;;20.30;;
3643;SDS011;1838;50.742;7.158;2023-08-17T04:14:49;34.80;;;18.60;;
3643;SDS011;1838;50.742;7.158;2023-08-17T04:17:14;36.00;;;19.90;;
3643;SDS011;1838;50.742;7.158;2023-08-17T04:19:40;37.33;;;21.10;;
3643;SDS011;1838;50.742;7.158;2023-08-17T04:22:05;35.93;;;19.17;;
3643;SDS011;1838;50.742;7.158;2023-08-17T04:24:31;33.20;;;20.40;;
3643;SDS011;1838;50.742;7.158;2023-08-17T04:26:56;43.50;;;20.97;;
3643;SDS011;1838;50.742;7.158;2023-08-17T04:29:22;41.13;;;22.50;;
3643;SDS011;1838;50.742;7.158;2023-08-17T04:31:47;34.90;;;18.57;;
3643;SDS011;1838;50.742;7.158;2023-08-17T04:34:13;26.40;;;17.30;;
3643;SDS011;1838;50.742;7.158;2023-08-17T04:36:38;40.17;;;18.40;;
3643;SDS011;1838;50.742;7.158;2023-08-17T04:39:04;33.90;;;19.67;;
3643;SDS011;1838;50.742;7.158;2023-08-17T04:41:30;30.40;;;17.77;;
3643;SDS011;1838;50.742;7.158;2023-08-17T04:43:55;28.03;;;18.03;;
3643;SDS011;1838;50.742;7.158;2023-08-17T04:46:21;35.53;;;19.67;;
3643;SDS011;1838;50.742;7.158;2023-08-17T04:48:47;33.13;;;17.80;;
3643;SDS011;1838;50.742;7.158;2023-08-17T04:51:13;33.77;;;20.30;;
3643;SDS011;1838;50.742;7.158;2023-08-17T04:53:39;31.57;;;17.23;;
3643;SDS011;1838;50.742;7.158;2023-08-17T04:56:05;29.87;;;17.40;;
3643;SDS011;1838;50.742;7.158;2023-08-17T04:58:31;38.10;;;18.47;;
3643;SDS011;1838;50.742;7.158;2023-08-17T05:00:56;26.17;;;17.97;;
3643;SDS011;1838;50.742;7.158;2023-08-17T05:03:23;29.37;;;17.10;;
3643;SDS011;1838;50.742;7.158;2023-08-17T05:05:49;29.97;;;18.37;;
3643;SDS011;1838;50.742;7.158;2023-08-17T05:08:16;27.83;;;15.53;;
3643;SDS011;1838;50.742;7.158;2023-08-17T05:10:42;20.03;;;12.40;;
3643;SDS011;1838;50.742;7.158;2023-08-17T05:13:07;22.30;;;12.00;;
3643;SDS011;1838;50.742;7.158;2023-08-17T05:15:33;16.00;;;11.83;;
3643;SDS011;1838;50.742;7.158;2023-08-17T05:17:58;21.93;;;12.40;;
3643;SDS011;1838;50.742;7.158;2023-08-17T05:20:24;12.93;;;10.87;;
3643;SDS011;1838;50.742;7.158;2023-08-17T05:22:49;17.00;;;11.20;;
3643;SDS011;1838;50.742;7.158;2023-08-17T05:25:15;15.40;;;10.13;;
3643;SDS011;1838;50.742;7.158;2023-08-17T05:27:40;12.17;;;10.70;;
3643;SDS011;1838;50.742;7.158;2023-08-17T05:30:06;14.50;;;11.03;;
3643;SDS011;1838;50.742;7.158;2023-08-17T05:32:32;17.00;;;10.80;;
3643;SDS011;1838;50.742;7.158;2023-08-17T05:34:57;19.57;;;11.40;;
3643;SDS011;1838;50.742;7.158;2023-08-17T05:37:23;13.33;;;11.03;;
3643;SDS011;1838;50.742;7.158;2023-08-17T05:39:48;13.50;;;11.70;;
3643;SDS011;1838;50.742;7.158;2023-08-17T05:42:14;19.30;;;11.90;;
3643;SDS011;1838;50.742;7.158;2023-08-17T05:44:40;17.33;;;11.90;;
3643;SDS011;1838;50.742;7.158;2023-08-17T05:47:06;12.80;;;11.50;;
3643;SDS011;1838;50.742;7.158;2023-08-17T05:49:31;16.50;;;12.17;;
3643;SDS011;1838;50.742;7.158;2023-08-17T05:51:57;17.57;;;11.20;;
3643;SDS011;1838;50.742;7.158;2023-08-17T05:54:22;21.43;;;11.17;;
3643;SDS011;1838;50.742;7.158;2023-08-17T05:56:48;19.33;;;11.67;;
3643;SDS011;1838;50.742;7.158;2023-08-17T05:59:13;12.73;;;11.53;;
3643;SDS011;1838;50.742;7.158;2023-08-17T06:01:39;13.17;;;10.87;;
3643;SDS011;1838;50.742;7.158;2023-08-17T06:04:05;16.40;;;11.23;;
3643;SDS011;1838;50.742;7.158;2023-08-17T06:06:31;15.93;;;11.60;;
3643;SDS011;1838;50.742;7.158;2023-08-17T06:08:56;14.07;;;10.90;;
3643;SDS011;1838;50.742;7.158;2023-08-17T06:11:22;13.33;;;11.93;;
3643;SDS011;1838;50.742;7.158;2023-08-17T06:13:48;13.80;;;11.30;;
3643;SDS011;1838;50.742;7.158;2023-08-17T06:16:14;15.07;;;11.83;;
3643;SDS011;1838;50.742;7.158;2023-08-17T06:18:40;16.60;;;11.23;;
3643;SDS011;1838;50.742;7.158;2023-08-17T06:21:06;17.83;;;13.00;;
3643;SDS011;1838;50.742;7.158;2023-08-17T06:23:32;14.90;;;12.53;;
3643;SDS011;1838;50.742;7.158;2023-08-17T06:25:58;16.27;;;12.57;;
3643;SDS011;1838;50.742;7.158;2023-08-17T06:28:25;15.90;;;13.23;;
3643;SDS011;1838;50.742;7.158;2023-08-17T06:30:54;18.93;;;13.30;;
3643;SDS011;1838;50.742;7.158;2023-08-17T06:33:21;19.33;;;12.60;;
3643;SDS011;1838;50.742;7.158;2023-08-17T06:35:47;26.73;;;14.37;;
3643;SDS011;1838;50.742;7.158;2023-08-17T06:38:13;23.43;;;12.77;;
3643;SDS011;1838;50.742;7.158;2023-08-17T06:40:38;23.07;;;14.07;;
3643;SDS011;1838;50.742;7.158;2023-08-17T06:43:04;21.70;;;13.17;;
3643;SDS011;1838;50.742;7.158;2023-08-17T06:45:31;18.90;;;13.30;;
3643;SDS011;1838;50.742;7.158;2023-08-17T06:47:57;28.57;;;16.67;;
3643;SDS011;1838;50.742;7.158;2023-08-17T06:50:22;19.83;;;14.37;;
3643;SDS011;1838;50.742;7.158;2023-08-17T06:52:48;22.50;;;14.80;;
3643;SDS011;1838;50.742;7.158;2023-08-17T06:55:13;27.80;;;15.80;;
3643;SDS011;1838;50.742;7.158;2023-08-17T06:57:40;29.23;;;15.17;;
3643;SDS011;1838;50.742;7.158;2023-08-17T07:00:06;28.63;;;15.13;;
3643;SDS011;1838;50.742;7.158;2023-08-17T07:02:32;23.63;;;13.53;;
3643;SDS011;1838;50.742;7.158;2023-08-17T07:04:59;22.27;;;14.73;;
3643;SDS011;1838;50.742;7.158;2023-08-17T07:07:25;21.87;;;14.87;;
3643;SDS011;1838;50.742;7.158;2023-08-17T07:09:50;20.87;;;14.77;;
3643;SDS011;1838;50.742;7.158;2023-08-17T07:12:15;27.13;;;15.53;;
3643;SDS011;1838;50.742;7.158;2023-08-17T07:14:41;23.80;;;17.27;;
3643;SDS011;1838;50.742;7.158;2023-08-17T07:17:06;23.50;;;15.80;;
3643;SDS011;1838;50.742;7.158;2023-08-17T07:19:32;30.30;;;16.97;;
3643;SDS011;1838;50.742;7.158;2023-08-17T07:21:57;30.70;;;16.37;;
3643;SDS011;1838;50.742;7.158;2023-08-17T07:24:23;32.33;;;18.90;;
3643;SDS011;1838;50.742;7.158;2023-08-17T07:26:48;30.53;;;18.07;;
3643;SDS011;1838;50.742;7.158;2023-08-17T07:29:14;32.20;;;16.73;;
3643;SDS011;1838;50.742;7.158;2023-08-17T07:31:40;30.07;;;18.50;;
3643;SDS011;1838;50.742;7.158;2023-08-17T07:34:05;37.80;;;18.27;;
3643;SDS011;1838;50.742;7.158;2023-08-17T07:36:31;33.73;;;17.53;;
3643;SDS011;1838;50.742;7.158;2023-08-17T07:38:57;39.10;;;20.10;;
3643;SDS011;1838;50.742;7.158;2023-08-17T07:41:23;39.00;;;20.10;;
3643;SDS011;1838;50.742;7.158;2023-08-17T07:43:49;27.80;;;16.60;;
3643;SDS011;1838;50.742;7.158;2023-08-17T07:46:14;26.80;;;14.37;;
3643;SDS011;1838;50.742;7.158;2023-08-17T07:48:40;28.13;;;13.93;;
3643;SDS011;1838;50.742;7.158;2023-08-17T07:51:06;18.93;;;13.70;;
3643;SDS011;1838;50.742;7.158;2023-08-17T07:53:31;21.20;;;12.57;;
3643;SDS011;1838;50.742;7.158;2023-08-17T07:55:57;19.80;;;12.70;;
3643;SDS011;1838;50.742;7.158;2023-08-17T07:58:22;21.13;;;12.43;;
3643;SDS011;1838;50.742;7.158;2023-08-17T08:00:48;26.43;;;13.47;;
3643;SDS011;1838;50.742;7.158;2023-08-17T08:03:27;16.38;;;11.75;;
3643;SDS011;1838;50.742;7.158;2023-08-17T08:05:52;31.37;;;14.13;;
3643;SDS011;1838;50.742;7.158;2023-08-17T08:08:18;31.20;;;13.30;;
3643;SDS011;1838;50.742;7.158;2023-08-17T08:10:45;31.37;;;12.53;;
3643;SDS011;1838;50.742;7.158;2023-08-17T08:13:10;19.20;;;11.83;;
3643;SDS011;1838;50.742;7.158;2023-08-17T08:15:36;20.60;;;12.00;;
3643;SDS011;1838;50.742;7.158;2023-08-17T08:18:01;20.33;;;12.60;;
3643;SDS011;1838;50.742;7.158;2023-08-17T08:20:27;20.23;;;12.23;;
3643;SDS011;1838;50.742;7.158;2023-08-17T08:22:53;22.20;;;13.60;;
3643;SDS011;1838;50.742;7.158;2023-08-17T08:25:18;21.67;;;14.17;;
3643;SDS011;1838;50.742;7.158;2023-08-17T08:27:44;23.43;;;14.63;;
3643;SDS011;1838;50.742;7.158;2023-08-17T08:30:09;17.33;;;12.00;;
3643;SDS011;1838;50.742;7.158;2023-08-17T08:32:35;21.10;;;13.90;;
3643;SDS011;1838;50.742;7.158;2023-08-17T08:35:01;23.90;;;13.63;;
3643;SDS011;1838;50.742;7.158;2023-08-17T08:37:27;26.70;;;15.20;;
3643;SDS011;1838;50.742;7.158;2023-08-17T08:39:53;36.27;;;14.90;;
3643;SDS011;1838;50.742;7.158;2023-08-17T08:42:19;20.60;;;14.87;;
3643;SDS011;1838;50.742;7.158;2023-08-17T08:44:46;23.73;;;12.93;;
3643;SDS011;1838;50.742;7.158;2023-08-17T08:47:12;21.80;;;13.30;;
3643;SDS011;1838;50.742;7.158;2023-08-17T08:49:39;39.23;;;14.93;;
3643;SDS011;1838;50.742;7.158;2023-08-17T08:52:11;26.20;;;14.03;;
3643;SDS011;1838;50.742;7.158;2023-08-17T08:54:43;22.83;;;12.57;;
3643;SDS011;1838;50.742;7.158;2023-08-17T08:57:12;26.40;;;15.40;;
3643;SDS011;1838;50.742;7.158;2023-08-17T08:59:41;22.30;;;14.03;;
3643;SDS011;1838;50.742;7.158;2023-08-17T09:02:12;18.53;;;13.27;;
3643;SDS011;1838;50.742;7.158;2023-08-17T09:04:40;18.57;;;12.90;;
3643;SDS011;1838;50.742;7.158;2023-08-17T09:07:06;23.67;;;13.57;;
3643;SDS011;1838;50.742;7.158;2023-08-17T09:09:33;26.53;;;13.30;;
3643;SDS011;1838;50.742;7.158;2023-08-17T09:12:00;19.23;;;13.13;;
3643;SDS011;1838;50.742;7.158;2023-08-17T09:14:26;20.37;;;11.20;;
3643;SDS011;1838;50.742;7.158;2023-08-17T09:16:51;18.50;;;13.03;;
3643;SDS011;1838;50.742;7.158;2023-08-17T09:19:18;13.80;;;10.80;;
3643;SDS011;1838;50.742;7.158;2023-08-17T09:21:44;12.33;;;10.93;;
3643;SDS011;1838;50.742;7.158;2023-08-17T09:24:09;15.80;;;11.93;;
3643;SDS011;1838;50.742;7.158;2023-08-17T09:26:37;24.97;;;16.43;;
3643;SDS011;1838;50.742;7.158;2023-08-17T09:29:15;25.17;;;14.27;;
3643;SDS011;1838;50.742;7.158;2023-08-17T09:31:45;16.63;;;11.83;;
3643;SDS011;1838;50.742;7.158;2023-08-17T09:34:11;18.57;;;13.20;;
3643;SDS011;1838;50.742;7.158;2023-08-17T09:36:39;26.50;;;15.23;;
3643;SDS011;1838;50.742;7.158;2023-08-17T09:39:05;22.10;;;15.50;;
3643;SDS011;1838;50.742;7.158;2023-08-17T09:41:37;17.23;;;13.67;;
3643;SDS011;1838;50.742;7.158;2023-08-17T09:44:04;24.60;;;15.80;;
3643;SDS011;1838;50.742;7.158;2023-08-17T09:46:31;24.23;;;14.27;;
3643;SDS011;1838;50.742;7.158;2023-08-17T09:48:56;21.93;;;14.70;;
3643;SDS011;1838;50.742;7.158;2023-08-17T09:51:22;23.87;;;13.50;;
3643;SDS011;1838;50.742;7.158;2023-08-17T09:53:52;21.30;;;14.17;;
3643;SDS011;1838;50.742;7.158;2023-08-17T09:56:18;20.60;;;14.03;;
3643;SDS011;1838;50.742;7.158;2023-08-17T09:58:46;19.50;;;12.77;;
3643;SDS011;1838;50.742;7.158;2023-08-17T10:01:11;23.37;;;14.20;;
3643;SDS011;1838;50.742;7.158;2023-08-17T10:03:39;19.50;;;13.50;;
3643;SDS011;1838;50.742;7.158;2023-08-17T10:06:09;25.00;;;14.63;;
3643;SDS011;1838;50.742;7.158;2023-08-17T10:08:39;17.83;;;12.47;;
3643;SDS011;1838;50.742;7.158;2023-08-17T10:11:10;23.93;;;14.70;;
3643;SDS011;1838;50.742;7.158;2023-08-17T10:13:42;30.53;;;17.73;;
3643;SDS011;1838;50.742;7.158;2023-08-17T10:16:21;28.50;;;18.07;;
3643;SDS011;1838;50.742;7.158;2023-08-17T10:18:55;20.43;;;14.60;;
3643;SDS011;1838;50.742;7.158;2023-08-17T10:21:37;20.37;;;14.40;;
3643;SDS011;1838;50.742;7.158;2023-08-17T10:24:08;21.20;;;14.50;;
3643;SDS011;1838;50.742;7.158;2023-08-17T10:26:34;20.80;;;14.90;;
3643;SDS011;1838;50.742;7.158;2023-08-17T10:29:00;23.70;;;13.20;;
3643;SDS011;1838;50.742;7.158;2023-08-17T10:31:27;15.60;;;12.80;;
3643;SDS011;1838;50.742;7.158;2023-08-17T10:33:54;23.87;;;13.17;;
3643;SDS011;1838;50.742;7.158;2023-08-17T10:36:20;19.53;;;12.73;;
3643;SDS011;1838;50.742;7.158;2023-08-17T10:38:47;20.93;;;12.53;;
3643;SDS011;1838;50.742;7.158;2023-08-17T10:41:13;16.23;;;11.20;;
3643;SDS011;1838;50.742;7.158;2023-08-17T10:46:38;17.80;;;11.53;;
3643;SDS011;1838;50.742;7.158;2023-08-17T10:49:23;11.37;;;10.07;;
3643;SDS011;1838;50.742;7.158;2023-08-17T10:51:59;15.07;;;11.47;;
3643;SDS011;1838;50.742;7.158;2023-08-17T10:54:35;13.47;;;9.70;;
3643;SDS011;1838;50.742;7.158;2023-08-17T11:00:07;10.93;;;9.47;;
3643;SDS011;1838;50.742;7.158;2023-08-17T11:02:35;11.33;;;8.47;;
3643;SDS011;1838;50.742;7.158;2023-08-17T11:05:02;13.83;;;8.50;;
3643;SDS011;1838;50.742;7.158;2023-08-17T11:07:38;10.50;;;9.30;;
3643;SDS011;1838;50.742;7.158;2023-08-17T11:12:45;9.83;;;8.30;;
3643;SDS011;1838;50.742;7.158;2023-08-17T11:15:10;15.63;;;9.40;;
3643;SDS011;1838;50.742;7.158;2023-08-17T11:17:36;16.20;;;10.07;;
3643;SDS011;1838;50.742;7.158;2023-08-17T11:20:02;9.07;;;8.13;;
3643;SDS011;1838;50.742;7.158;2023-08-17T11:22:29;8.57;;;7.67;;
3643;SDS011;1838;50.742;7.158;2023-08-17T11:24:55;10.03;;;7.47;;
3643;SDS011;1838;50.742;7.158;2023-08-17T11:27:20;8.30;;;7.53;;
3643;SDS011;1838;50.742;7.158;2023-08-17T11:29:46;8.63;;;7.73;;
3643;SDS011;1838;50.742;7.158;2023-08-17T11:32:12;10.10;;;8.50;;
3643;SDS011;1838;50.742;7.158;2023-08-17T11:34:41;10.13;;;7.80;;
3643;SDS011;1838;50.742;7.158;2023-08-17T11:37:07;8.13;;;7.33;;
3643;SDS011;1838;50.742;7.158;2023-08-17T11:39:33;9.20;;;8.30;;
3643;SDS011;1838;50.742;7.158;2023-08-17T11:41:59;7.90;;;7.20;;
3643;SDS011;1838;50.742;7.158;2023-08-17T11:44:25;9.33;;;7.70;;
3643;SDS011;1838;50.742;7.158;2023-08-17T11:46:51;8.77;;;7.30;;
3643;SDS011;1838;50.742;7.158;2023-08-17T11:49:17;9.37;;;7.67;;
3643;SDS011;1838;50.742;7.158;2023-08-17T11:51:42;7.77;;;7.00;;
3643;SDS011;1838;50.742;7.158;2023-08-17T11:54:08;6.60;;;6.00;;
3643;SDS011;1838;50.742;7.158;2023-08-17T11:56:33;7.53;;;6.83;;
3643;SDS011;1838;50.742;7.158;2023-08-17T11:59:07;7.73;;;6.90;;
3643;SDS011;1838;50.742;7.158;2023-08-17T12:01:39;9.70;;;7.30;;
3643;SDS011;1838;50.742;7.158;2023-08-17T12:04:05;6.93;;;6.33;;
3643;SDS011;1838;50.742;7.158;2023-08-17T12:06:31;7.77;;;7.00;;
3643;SDS011;1838;50.742;7.158;2023-08-17T12:08:57;8.87;;;7.03;;
3643;SDS011;1838;50.742;7.158;2023-08-17T12:11:23;9.80;;;5.83;;
3643;SDS011;1838;50.742;7.158;2023-08-17T12:13:50;7.20;;;6.10;;
3643;SDS011;1838;50.742;7.158;2023-08-17T12:16:16;9.33;;;6.10;;
3643;SDS011;1838;50.742;7.158;2023-08-17T12:18:49;10.63;;;9.57;;
3643;SDS011;1838;50.742;7.158;2023-08-17T12:21:15;12.67;;;9.93;;
3643;SDS011;1838;50.742;7.158;2023-08-17T12:23:41;14.93;;;12.00;;
3643;SDS011;1838;50.742;7.158;2023-08-17T12:26:07;15.43;;;11.97;;
3643;SDS011;1838;50.742;7.158;2023-08-17T12:28:33;17.67;;;13.53;;
3643;SDS011;1838;50.742;7.158;2023-08-17T12:30:59;18.80;;;12.70;;
3643;SDS011;1838;50.742;7.158;2023-08-17T12:33:26;13.37;;;10.97;;
3643;SDS011;1838;50.742;7.158;2023-08-17T12:35:52;13.63;;;11.00;;
3643;SDS011;1838;50.742;7.158;2023-08-17T12:38:17;11.73;;;10.50;;
3643;SDS011;1838;50.742;7.158;2023-08-17T12:40:43;18.73;;;11.60;;
3643;SDS011;1838;50.742;7.158;2023-08-17T12:43:08;20.40;;;10.83;;
3643;SDS011;1838;50.742;7.158;2023-08-17T12:45:34;11.30;;;10.07;;
3643;SDS011;1838;50.742;7.158;2023-08-17T12:47:59;12.73;;;10.40;;
3643;SDS011;1838;50.742;7.158;2023-08-17T12:50:25;14.70;;;10.37;;
3643;SDS011;1838;50.742;7.158;2023-08-17T12:52:50;16.13;;;12.70;;
3643;SDS011;1838;50.742;7.158;2023-08-17T12:55:16;14.90;;;12.97;;
3643;SDS011;1838;50.742;7.158;2023-08-17T12:57:41;16.60;;;11.40;;
3643;SDS011;1838;50.742;7.158;2023-08-17T13:00:07;17.53;;;13.60;;
3643;SDS011;1838;50.742;7.158;2023-08-17T13:02:33;21.10;;;14.77;;
3643;SDS011;1838;50.742;7.158;2023-08-17T13:04:59;20.97;;;17.13;;
3643;SDS011;1838;50.742;7.158;2023-08-17T13:07:25;22.80;;;16.83;;
3643;SDS011;1838;50.742;7.158;2023-08-17T13:09:50;24.03;;;17.90;;
3643;SDS011;1838;50.742;7.158;2023-08-17T13:12:16;22.63;;;17.10;;
3643;SDS011;1838;50.742;7.158;2023-08-17T13:14:41;28.63;;;18.57;;
3643;SDS011;1838;50.742;7.158;2023-08-17T13:17:07;20.30;;;17.63;;
3643;SDS011;1838;50.742;7.158;2023-08-17T13:19:32;24.57;;;18.13;;
3643;SDS011;1838;50.742;7.158;2023-08-17T13:21:58;22.10;;;18.50;;
3643;SDS011;1838;50.742;7.158;2023-08-17T13:24:23;23.67;;;18.77;;
3643;SDS011;1838;50.742;7.158;2023-08-17T13:26:49;23.90;;;18.80;;
3643;SDS011;1838;50.742;7.158;2023-08-17T13:29:17;21.40;;;19.20;;
3643;SDS011;1838;50.742;7.158;2023-08-17T13:31:43;22.27;;;18.43;;
3643;SDS011;1838;50.742;7.158;2023-08-17T13:34:11;27.93;;;19.87;;
3643;SDS011;1838;50.742;7.158;2023-08-17T13:36:36;23.27;;;18.43;;
3643;SDS011;1838;50.742;7.158;2023-08-17T13:39:02;22.23;;;18.80;;
3643;SDS011;1838;50.742;7.158;2023-08-17T13:41:27;23.40;;;20.13;;
3643;SDS011;1838;50.742;7.158;2023-08-17T13:43:53;23.23;;;17.57;;
3643;SDS011;1838;50.742;7.158;2023-08-17T13:46:22;19.57;;;16.30;;
3643;SDS011;1838;50.742;7.158;2023-08-17T13:48:47;22.00;;;17.40;;
3643;SDS011;1838;50.742;7.158;2023-08-17T13:51:13;21.70;;;16.90;;
3643;SDS011;1838;50.742;7.158;2023-08-17T13:53:38;24.83;;;17.03;;
3643;SDS011;1838;50.742;7.158;2023-08-17T13:56:04;22.13;;;17.00;;
3643;SDS011;1838;50.742;7.158;2023-08-17T13:58:29;20.40;;;15.63;;
3643;SDS011;1838;50.742;7.158;2023-08-17T14:00:55;21.70;;;16.20;;
3643;SDS011;1838;50.742;7.158;2023-08-17T14:03:20;24.63;;;16.57;;
3643;SDS011;1838;50.742;7.158;2023-08-17T14:05:46;20.27;;;15.00;;
3643;SDS011;1838;50.742;7.158;2023-08-17T14:08:11;16.67;;;14.70;;
3643;SDS011;1838;50.742;7.158;2023-08-17T14:10:37;16.50;;;13.67;;
3643;SDS011;1838;50.742;7.158;2023-08-17T14:13:03;18.23;;;14.50;;
3643;SDS011;1838;50.742;7.158;2023-08-17T14:15:29;16.47;;;14.20;;
3643;SDS011;1838;50.742;7.158;2023-08-17T14:17:55;15.83;;;12.90;;
3643;SDS011;1838;50.742;7.158;2023-08-17T14:20:20;16.77;;;13.17;;
3643;SDS011;1838;50.742;7.158;2023-08-17T14:22:46;10.70;;;9.60;;
3643;SDS011;1838;50.742;7.158;2023-08-17T14:25:12;11.23;;;10.07;;
3643;SDS011;1838;50.742;7.158;2023-08-17T14:27:38;11.77;;;9.53;;
3643;SDS011;1838;50.742;7.158;2023-08-17T14:30:03;12.40;;;9.20;;
3643;SDS011;1838;50.742;7.158;2023-08-17T14:32:29;8.90;;;8.10;;
3643;SDS011;1838;50.742;7.158;2023-08-17T14:34:55;9.63;;;8.73;;
3643;SDS011;1838;50.742;7.158;2023-08-17T14:37:20;10.90;;;8.80;;
3643;SDS011;1838;50.742;7.158;2023-08-17T14:39:46;11.43;;;8.23;;
3643;SDS011;1838;50.742;7.158;2023-08-17T14:42:12;9.13;;;7.83;;
3643;SDS011;1838;50.742;7.158;2023-08-17T14:44:37;10.23;;;8.77;;
3643;SDS011;1838;50.742;7.158;2023-08-17T14:47:03;8.63;;;7.80;;
3643;SDS011;1838;50.742;7.158;2023-08-17T14:49:29;7.83;;;7.03;;
3643;SDS011;1838;50.742;7.158;2023-08-17T14:51:54;17.17;;;7.50;;
3643;SDS011;1838;50.742;7.158;2023-08-17T14:54:20;8.23;;;7.30;;